createdAt,value
2019-05-25T00:00:32.519Z,94.40
2019-05-25T00:03:34.855Z,95.10
2019-05-25T00:06:37.090Z,95.40
2019-05-25T00:09:39.339Z,95.60
2019-05-25T00:12:41.644Z,95.70
2019-05-25T00:15:43.926Z,96.00
2019-05-25T00:18:46.224Z,96.50
2019-05-25T00:21:48.487Z,95.40
2019-05-25T00:24:50.702Z,95.00
2019-05-25T00:27:52.961Z,95.60
2019-05-25T00:30:55.211Z,96.20
2019-05-25T00:33:57.519Z,96.30
2019-05-25T00:36:59.823Z,96.10
2019-05-25T00:40:02.094Z,96.30
2019-05-25T00:43:04.388Z,96.10
2019-05-25T00:46:06.695Z,95.80
2019-05-25T00:49:08.928Z,95.50
2019-05-25T00:52:11.220Z,96.00
2019-05-25T00:55:13.453Z,96.00
2019-05-25T00:58:15.692Z,95.70
2019-05-25T01:01:17.900Z,95.60
2019-05-25T01:04:20.137Z,95.80
2019-05-25T01:07:22.384Z,95.20
2019-05-25T01:10:24.669Z,94.50
2019-05-25T01:13:26.927Z,94.60
2019-05-25T01:16:29.213Z,94.90
2019-05-25T01:19:31.536Z,95.10
2019-05-25T01:22:33.786Z,94.90
2019-05-25T01:25:36.069Z,95.00
2019-05-25T01:28:38.335Z,95.20
2019-05-25T01:31:40.603Z,96.20
2019-05-25T01:34:42.860Z,96.90
2019-05-25T01:37:48.324Z,97.90
2019-05-25T01:40:47.450Z,98.30
2019-05-25T01:43:49.670Z,98.80
2019-05-25T01:46:51.950Z,99.50
2019-05-25T01:49:54.191Z,99.90
2019-05-25T01:52:56.430Z,99.90
2019-05-25T01:55:58.701Z,99.90
2019-05-25T01:59:00.989Z,99.90
2019-05-25T02:02:03.350Z,99.90
2019-05-25T02:05:05.879Z,99.90
2019-05-25T02:08:08.115Z,99.90
2019-05-25T02:11:10.327Z,99.90
2019-05-25T02:14:12.629Z,99.90
2019-05-25T02:17:14.869Z,99.90
2019-05-25T02:20:17.148Z,99.90
2019-05-25T02:23:19.592Z,99.90
2019-05-25T02:26:21.841Z,99.90
2019-05-25T02:29:24.220Z,99.90
2019-05-25T02:32:26.441Z,99.90
2019-05-25T02:35:28.791Z,99.90
2019-05-25T02:38:31.080Z,99.90
2019-05-25T02:41:33.365Z,99.90
2019-05-25T02:44:35.691Z,99.90
2019-05-25T02:47:37.934Z,99.90
2019-05-25T02:50:40.191Z,99.90
2019-05-25T02:53:42.440Z,99.90
2019-05-25T02:56:44.675Z,99.90
2019-05-25T02:59:47.074Z,99.90
2019-05-25T03:02:49.388Z,99.90
2019-05-25T03:05:51.710Z,99.90
2019-05-25T03:08:54.015Z,99.90
2019-05-25T03:11:56.295Z,99.90
2019-05-25T03:14:58.532Z,99.90
2019-05-25T03:18:00.800Z,99.90
2019-05-25T03:21:03.109Z,99.90
2019-05-25T03:24:05.338Z,99.90
2019-05-25T03:27:07.563Z,99.90
2019-05-25T03:30:09.937Z,99.90
2019-05-25T03:33:12.158Z,99.90
2019-05-25T03:36:14.397Z,99.90
2019-05-25T03:39:16.631Z,99.90
2019-05-25T03:42:18.937Z,99.90
2019-05-25T03:45:21.200Z,99.90
2019-05-25T03:48:23.487Z,99.90
2019-05-25T03:51:25.714Z,99.90
2019-05-25T03:54:27.943Z,99.90
2019-05-25T03:57:30.161Z,99.90
2019-05-25T04:00:33.636Z,99.90
2019-05-25T04:03:35.849Z,99.90
2019-05-25T04:06:38.112Z,99.90
2019-05-25T04:09:40.367Z,99.90
2019-05-25T04:12:42.569Z,99.90
2019-05-25T04:15:44.930Z,99.90
2019-05-25T04:18:47.184Z,99.90
2019-05-25T04:21:49.432Z,99.90
2019-05-25T04:24:51.691Z,99.90
2019-05-25T04:27:53.921Z,99.90
2019-05-25T04:30:56.172Z,99.90
2019-05-25T04:33:58.385Z,99.90
2019-05-25T04:37:00.675Z,99.90
2019-05-25T04:40:03.086Z,99.90
2019-05-25T04:43:05.352Z,99.90
2019-05-25T04:46:07.577Z,99.90
2019-05-25T04:49:09.827Z,99.90
2019-05-25T04:52:12.049Z,99.90
2019-05-25T04:55:14.325Z,99.90
2019-05-25T04:58:16.605Z,99.90
2019-05-25T05:01:22.310Z,99.90
2019-05-25T05:04:21.203Z,99.90
2019-05-25T05:07:23.433Z,99.90
2019-05-25T05:10:26.318Z,99.90
2019-05-25T05:13:28.571Z,99.90
2019-05-25T05:16:30.875Z,99.90
2019-05-25T05:19:33.102Z,99.90
2019-05-25T05:22:35.359Z,99.90
2019-05-25T05:25:37.572Z,99.90
2019-05-25T05:28:39.837Z,99.70
2019-05-25T05:31:42.134Z,98.60
2019-05-25T05:34:44.427Z,96.20
2019-05-25T05:37:46.704Z,94.10
2019-05-25T05:40:48.968Z,93.60
2019-05-25T05:43:51.231Z,93.20
2019-05-25T05:46:53.509Z,92.50
2019-05-25T05:49:55.810Z,91.90
2019-05-25T05:52:58.089Z,90.30
2019-05-25T05:56:00.291Z,90.60
2019-05-25T05:59:02.556Z,88.70
2019-05-25T06:02:04.828Z,87.00
2019-05-25T06:05:07.133Z,85.60
2019-05-25T06:08:09.433Z,84.00
2019-05-25T06:11:11.648Z,83.90
2019-05-25T06:14:13.900Z,82.80
2019-05-25T06:17:16.129Z,82.30
2019-05-25T06:20:18.482Z,81.40
2019-05-25T06:23:20.718Z,81.50
2019-05-25T06:26:22.954Z,81.40
2019-05-25T06:29:25.242Z,81.10
2019-05-25T06:32:27.542Z,79.40
2019-05-25T06:35:29.906Z,79.20
2019-05-25T06:38:32.188Z,78.80
2019-05-25T06:41:34.519Z,78.30
2019-05-25T06:44:36.798Z,78.00
2019-05-25T06:47:39.056Z,78.30
2019-05-25T06:50:41.346Z,77.50
2019-05-25T06:53:43.640Z,76.20
2019-05-25T06:56:45.914Z,75.60
2019-05-25T06:59:48.149Z,76.90
2019-05-25T07:02:50.449Z,76.50
2019-05-25T07:05:52.727Z,75.00
2019-05-25T07:08:54.993Z,75.10
2019-05-25T07:11:57.214Z,74.70
2019-05-25T07:14:59.465Z,74.50
2019-05-25T07:18:01.708Z,74.60
2019-05-25T07:21:04.058Z,74.70
2019-05-25T07:24:06.312Z,74.60
2019-05-25T07:27:08.608Z,74.70
2019-05-25T07:30:10.989Z,73.60
2019-05-25T07:33:13.194Z,74.00
2019-05-25T07:36:15.440Z,74.20
2019-05-25T07:39:17.677Z,74.20
2019-05-25T07:42:20.229Z,73.90
2019-05-25T07:45:22.199Z,73.70
2019-05-25T07:48:24.480Z,73.60
2019-05-25T07:51:26.723Z,74.30
2019-05-25T07:54:28.943Z,74.30
2019-05-25T07:57:31.179Z,74.00
2019-05-25T08:00:33.412Z,73.50
2019-05-25T08:03:39.538Z,74.80
2019-05-25T08:06:37.920Z,74.00
2019-05-25T08:09:40.165Z,74.60
2019-05-25T08:12:42.419Z,74.70
2019-05-25T08:15:44.672Z,75.20
2019-05-25T08:18:47.212Z,74.90
2019-05-25T08:21:49.581Z,71.90
2019-05-25T08:24:51.829Z,72.60
2019-05-25T08:27:54.079Z,72.60
2019-05-25T08:30:56.364Z,70.00
2019-05-25T08:33:58.615Z,69.60
2019-05-25T08:37:00.863Z,68.80
2019-05-25T08:40:03.869Z,70.00
2019-05-25T08:43:06.139Z,70.20
2019-05-25T08:46:08.377Z,70.50
2019-05-25T08:49:10.645Z,69.70
2019-05-25T08:52:12.908Z,68.20
2019-05-25T08:55:15.180Z,67.30
2019-05-25T08:58:17.392Z,67.80
2019-05-25T09:01:19.599Z,67.40
2019-05-25T09:04:21.812Z,68.10
2019-05-25T09:07:24.163Z,69.10
2019-05-25T09:10:26.388Z,69.00
2019-05-25T09:13:28.665Z,66.30
2019-05-25T09:16:31.022Z,66.50
2019-05-25T09:19:33.322Z,65.40
2019-05-25T09:22:35.671Z,66.50
2019-05-25T09:25:37.901Z,67.30
2019-05-25T09:28:40.157Z,64.80
2019-05-25T09:31:42.437Z,64.80
2019-05-25T09:34:44.697Z,64.20
2019-05-25T09:37:46.948Z,66.00
2019-05-25T09:40:49.210Z,65.60
2019-05-25T09:43:51.421Z,66.80
2019-05-25T09:46:53.655Z,67.80
2019-05-25T09:49:56.151Z,67.00
2019-05-25T09:52:58.387Z,67.10
2019-05-25T09:56:00.613Z,67.10
2019-05-25T09:59:02.908Z,67.10
2019-05-25T10:02:05.164Z,66.90
2019-05-25T10:05:07.537Z,65.80
2019-05-25T10:08:09.766Z,66.00
2019-05-25T10:11:12.432Z,66.40
2019-05-25T10:14:14.724Z,67.30
2019-05-25T10:17:17.302Z,67.30
2019-05-25T10:20:19.619Z,68.10
2019-05-25T10:23:21.959Z,67.30
2019-05-25T10:26:24.173Z,69.10
2019-05-25T10:29:36.537Z,69.00
2019-05-25T10:32:28.679Z,68.70
2019-05-25T10:35:31.041Z,69.60
2019-05-25T10:38:33.280Z,69.50
2019-05-25T10:41:35.505Z,69.30
2019-05-25T10:44:37.715Z,69.20
2019-05-25T10:47:39.959Z,68.30
2019-05-25T10:50:42.283Z,69.10
2019-05-25T10:53:44.552Z,68.20
2019-05-25T10:56:46.761Z,68.70
2019-05-25T10:59:52.875Z,68.30
2019-05-25T11:02:51.211Z,67.40
2019-05-25T11:05:53.431Z,65.70
2019-05-25T11:08:55.665Z,67.10
2019-05-25T11:11:57.908Z,66.30
2019-05-25T11:15:00.155Z,65.60
2019-05-25T11:18:02.488Z,65.20
2019-05-25T11:21:04.754Z,64.80
2019-05-25T11:24:07.006Z,63.40
2019-05-25T11:27:09.215Z,62.00
2019-05-25T11:30:11.565Z,61.60
2019-05-25T11:33:13.832Z,63.20
2019-05-25T11:36:16.177Z,62.60
2019-05-25T11:39:18.397Z,62.10
2019-05-25T11:42:20.653Z,61.30
2019-05-25T11:45:22.922Z,62.50
2019-05-25T11:48:25.159Z,61.90
2019-05-25T11:51:27.432Z,60.60
2019-05-25T11:54:29.687Z,61.50
2019-05-25T11:57:31.920Z,61.40
2019-05-25T12:00:34.289Z,62.40
2019-05-25T12:03:36.538Z,64.10
2019-05-25T12:06:38.783Z,64.80
2019-05-25T12:09:41.045Z,66.90
2019-05-25T12:12:43.322Z,67.20
2019-05-25T12:15:45.549Z,67.70
2019-05-25T12:18:47.816Z,66.20
2019-05-25T12:21:50.068Z,64.40
2019-05-25T12:24:52.300Z,63.40
2019-05-25T12:27:54.508Z,63.50
2019-05-25T12:30:56.781Z,64.20
2019-05-25T12:33:59.013Z,65.30
2019-05-25T12:37:01.295Z,67.20
2019-05-25T12:40:04.021Z,66.90
2019-05-25T12:43:06.259Z,66.90
2019-05-25T12:46:08.543Z,66.10
2019-05-25T12:49:10.763Z,67.10
2019-05-25T12:52:12.979Z,66.50
2019-05-25T12:55:15.259Z,65.60
2019-05-25T12:58:17.501Z,66.50
2019-05-25T13:01:19.877Z,66.00
2019-05-25T13:04:22.150Z,65.80
2019-05-25T13:07:24.395Z,66.00
2019-05-25T13:10:26.712Z,65.60
2019-05-25T13:13:28.997Z,65.50
2019-05-25T13:16:31.298Z,64.50
2019-05-25T13:19:33.584Z,65.10
2019-05-25T13:22:35.856Z,65.30
2019-05-25T13:25:38.111Z,64.70
2019-05-25T13:28:40.345Z,65.20
2019-05-25T13:31:42.575Z,65.00
2019-05-25T13:34:44.874Z,64.30
2019-05-25T13:37:47.153Z,64.90
2019-05-25T13:40:49.415Z,65.20
2019-05-25T13:43:51.639Z,64.70
2019-05-25T13:46:53.895Z,64.90
2019-05-25T13:49:56.156Z,64.30
2019-05-25T13:52:58.387Z,64.30
2019-05-25T13:56:00.677Z,64.90
2019-05-25T13:59:02.983Z,64.80
2019-05-25T14:02:05.253Z,61.70
2019-05-25T14:05:07.565Z,61.70
2019-05-25T14:08:09.879Z,62.80
2019-05-25T14:11:12.095Z,64.60
2019-05-25T14:14:14.382Z,65.50
2019-05-25T14:17:16.613Z,65.80
2019-05-25T14:20:18.887Z,65.50
2019-05-25T14:23:21.173Z,65.30
2019-05-25T14:26:23.452Z,65.80
2019-05-25T14:29:26.556Z,65.30
2019-05-25T14:32:27.999Z,64.30
2019-05-25T14:35:30.286Z,65.30
2019-05-25T14:38:32.532Z,66.50
2019-05-25T14:41:34.761Z,66.90
2019-05-25T14:44:37.013Z,67.00
2019-05-25T14:47:39.225Z,67.20
2019-05-25T14:50:41.521Z,66.50
2019-05-25T14:53:43.745Z,67.00
2019-05-25T14:56:46.040Z,67.50
2019-05-25T14:59:48.261Z,67.50
2019-05-25T15:02:50.552Z,67.50
2019-05-25T15:05:52.800Z,66.70
2019-05-25T15:08:55.031Z,66.60
2019-05-25T15:11:57.268Z,66.70
2019-05-25T15:14:59.780Z,65.20
2019-05-25T15:18:02.115Z,65.10
2019-05-25T15:21:04.397Z,65.20
2019-05-25T15:24:06.811Z,66.20
2019-05-25T15:27:08.977Z,65.90
2019-05-25T15:30:11.247Z,66.80
2019-05-25T15:33:13.460Z,68.90
2019-05-25T15:36:15.746Z,70.10
2019-05-25T15:39:18.027Z,70.50
2019-05-25T15:42:20.321Z,70.60
2019-05-25T15:45:22.639Z,70.10
2019-05-25T15:48:26.377Z,71.30
2019-05-25T15:51:27.151Z,70.50
2019-05-25T15:54:29.374Z,70.10
2019-05-25T15:57:31.690Z,70.10
2019-05-25T16:00:42.974Z,69.60
2019-05-25T16:03:45.194Z,70.40
2019-05-25T16:06:47.479Z,69.30
2019-05-25T16:09:49.723Z,69.30
2019-05-25T16:12:51.961Z,69.10
2019-05-25T16:15:54.257Z,69.20
2019-05-25T16:18:56.539Z,68.60
2019-05-25T16:21:58.780Z,69.00
2019-05-25T16:25:01.040Z,69.50
2019-05-25T16:28:03.364Z,69.20
2019-05-25T16:31:05.681Z,70.70
2019-05-25T16:34:07.975Z,72.40
2019-05-25T16:37:10.332Z,73.30
2019-05-25T16:40:12.577Z,74.50
2019-05-25T16:43:14.871Z,75.10
2019-05-25T16:46:17.163Z,75.50
2019-05-25T16:49:19.491Z,76.10
2019-05-25T16:52:21.768Z,76.70
2019-05-25T16:55:24.042Z,77.80
2019-05-25T16:58:26.281Z,77.80
2019-05-25T17:01:46.404Z,78.50
2019-05-25T17:04:30.795Z,79.30
2019-05-25T17:07:33.088Z,80.20
2019-05-25T17:10:35.422Z,81.20
2019-05-25T17:13:37.703Z,83.70
2019-05-25T17:16:39.957Z,85.70
2019-05-25T17:19:42.397Z,86.50
2019-05-25T17:22:44.737Z,86.00
2019-05-25T17:25:46.972Z,88.30
2019-05-25T17:28:49.298Z,90.80
2019-05-25T17:31:51.549Z,92.50
2019-05-25T17:34:53.811Z,93.90
2019-05-25T17:37:56.055Z,94.20
2019-05-25T17:40:58.412Z,94.60
2019-05-25T17:44:00.673Z,94.60
2019-05-25T17:47:02.992Z,95.00
2019-05-25T17:50:05.352Z,96.60
2019-05-25T17:53:07.658Z,99.80
2019-05-25T17:56:09.962Z,99.90
2019-05-25T17:59:12.255Z,99.90
2019-05-25T18:02:14.533Z,99.90
2019-05-25T18:05:16.795Z,99.90
2019-05-25T18:08:19.024Z,99.90
2019-05-25T18:11:21.295Z,99.90
2019-05-25T18:14:23.538Z,99.90
2019-05-25T18:17:25.800Z,99.90
2019-05-25T18:20:28.110Z,99.90
2019-05-25T18:23:30.430Z,99.90
2019-05-25T18:26:32.675Z,99.90
2019-05-25T18:29:34.937Z,99.90
2019-05-25T18:32:37.223Z,99.90
2019-05-25T18:35:39.424Z,99.90
2019-05-25T18:38:41.696Z,99.90
2019-05-25T18:41:43.998Z,99.90
2019-05-25T18:44:46.255Z,99.90
2019-05-25T18:47:48.521Z,99.90
2019-05-25T18:50:50.819Z,99.90
2019-05-25T18:53:53.070Z,99.90
2019-05-25T18:56:55.295Z,99.90
2019-05-25T18:59:57.531Z,99.90
2019-05-25T19:02:59.798Z,99.90
2019-05-25T19:06:02.073Z,99.90
2019-05-25T19:09:06.453Z,99.90
2019-05-25T19:12:08.749Z,99.90
2019-05-25T19:15:11.085Z,99.90
2019-05-25T19:18:13.335Z,99.90
2019-05-25T19:21:15.550Z,99.90
2019-05-25T19:24:17.791Z,99.90
2019-05-25T19:27:20.052Z,99.90
2019-05-25T19:30:22.684Z,99.90
2019-05-25T19:33:24.941Z,99.90
2019-05-25T19:36:27.218Z,99.90
2019-05-25T19:39:29.505Z,99.90
2019-05-25T19:42:31.736Z,99.90
2019-05-25T19:45:33.978Z,99.90
2019-05-25T19:48:36.664Z,99.90
2019-05-25T19:51:38.911Z,99.90
2019-05-25T19:54:41.215Z,99.90
2019-05-25T19:57:45.463Z,99.90
2019-05-25T20:00:45.807Z,99.90
2019-05-25T20:03:48.092Z,99.90
2019-05-25T20:06:50.304Z,99.90
2019-05-25T20:09:52.563Z,99.90
2019-05-25T20:12:54.915Z,99.90
2019-05-25T20:15:57.162Z,99.90
2019-05-25T20:18:59.429Z,99.90
2019-05-25T20:22:01.757Z,99.90
2019-05-25T20:25:04.176Z,99.90
2019-05-25T20:28:06.428Z,99.90
2019-05-25T20:31:08.674Z,99.90
2019-05-25T20:34:10.932Z,99.90
2019-05-25T20:37:13.175Z,99.90
2019-05-25T20:40:16.025Z,99.90
2019-05-25T20:43:17.767Z,99.90
2019-05-25T20:46:20.005Z,99.90
2019-05-25T20:49:22.237Z,99.90
2019-05-25T20:52:24.499Z,99.90
2019-05-25T20:55:26.757Z,99.90
2019-05-25T20:58:29.000Z,99.90
2019-05-25T21:01:31.268Z,99.90
2019-05-25T21:04:33.621Z,99.90
2019-05-25T21:07:35.915Z,99.90
2019-05-25T21:10:38.172Z,99.90
2019-05-25T21:13:40.379Z,99.90
2019-05-25T21:16:42.692Z,99.90
2019-05-25T21:19:44.942Z,99.90
2019-05-25T21:22:47.195Z,99.90
2019-05-25T21:25:49.432Z,99.90
2019-05-25T21:28:51.690Z,99.90
2019-05-25T21:31:53.949Z,99.90
2019-05-25T21:34:56.181Z,99.90
2019-05-25T21:37:58.418Z,99.90
2019-05-25T21:41:00.636Z,99.90
2019-05-25T21:44:02.879Z,99.90
2019-05-25T21:47:05.182Z,99.90
2019-05-25T21:50:07.500Z,99.90
2019-05-25T21:53:11.266Z,99.90
2019-05-25T21:56:12.012Z,99.90
2019-05-25T21:59:14.268Z,99.90
2019-05-25T22:02:16.584Z,99.90
2019-05-25T22:05:18.898Z,99.90
2019-05-25T22:08:21.223Z,99.90
2019-05-25T22:11:23.524Z,99.90
2019-05-25T22:14:25.820Z,99.90
2019-05-25T22:17:28.078Z,99.90
2019-05-25T22:20:30.342Z,99.90
2019-05-25T22:23:32.577Z,99.90
2019-05-25T22:26:34.883Z,99.90
2019-05-25T22:29:37.173Z,99.90
2019-05-25T22:32:39.467Z,99.90
2019-05-25T22:35:41.722Z,99.90
2019-05-25T22:38:43.959Z,99.90
2019-05-25T22:41:46.281Z,99.90
2019-05-25T22:44:48.530Z,99.90
2019-05-25T22:47:50.767Z,99.90
2019-05-25T22:50:53.775Z,99.90
2019-05-25T22:53:56.027Z,99.90
2019-05-25T22:56:58.287Z,99.90
2019-05-25T23:00:00.578Z,99.90
2019-05-25T23:03:02.831Z,99.90
2019-05-25T23:06:05.095Z,99.90
2019-05-25T23:09:07.323Z,99.90
2019-05-25T23:12:09.659Z,99.90
2019-05-25T23:15:12.011Z,99.90
2019-05-25T23:18:14.243Z,99.90
2019-05-25T23:21:16.483Z,99.90
2019-05-25T23:24:18.692Z,99.90
2019-05-25T23:27:20.940Z,99.90
2019-05-25T23:30:23.282Z,99.90
2019-05-25T23:33:25.563Z,99.90
2019-05-25T23:36:27.843Z,99.90
2019-05-25T23:39:30.087Z,99.90
2019-05-25T23:42:32.436Z,99.90
2019-05-25T23:45:34.621Z,99.90
2019-05-25T23:48:36.919Z,99.90
2019-05-25T23:51:39.221Z,99.90
2019-05-25T23:54:41.519Z,99.90
2019-05-25T23:57:43.749Z,99.90
